Time;durP1;ratioP1;P1;durP2;ratioP2;P2;SDS_P1;SDS_P2;PMS_P1;PMS_P2;Temp;Humidity;BMP_temperature;BMP_pressure;BME280_temperature;BME280_humidity;BME280_pressure;Samples;Min_cycle;Max_cycle;Signal;HPM_P1;HPM_P2
2022/07/09 00:02:08;;;;;;;2.38;0.50;;;11.80;70.50;;;;;;5005773;28;20113;-54
2022/07/09 00:04:36;;;;;;;7.03;1.15;;;11.90;71.10;;;;;;5005894;28;20474;-53
2022/07/09 00:07:03;;;;;;;4.38;0.60;;;12.00;71.20;;;;;;5007453;28;20034;-50
2022/07/09 00:09:30;;;;;;;3.53;0.50;;;12.10;70.80;;;;;;5007903;28;20034;-54
2022/07/09 00:11:57;;;;;;;2.03;0.70;;;12.20;70.70;;;;;;5011436;28;20040;-63
2022/07/09 00:14:25;;;;;;;1.58;0.50;;;12.20;71.80;;;;;;5006348;28;20034;-52
2022/07/09 00:16:52;;;;;;;1.38;0.60;;;12.30;72.60;;;;;;5007731;28;20686;-51
2022/07/09 00:19:19;;;;;;;1.95;1.08;;;12.30;70.90;;;;;;5006208;28;20112;-54
2022/07/09 00:21:46;;;;;;;0.98;0.52;;;12.30;71.70;;;;;;5008572;28;20026;-51
2022/07/09 00:24:14;;;;;;;3.50;0.65;;;12.40;71.50;;;;;;5006492;28;20034;-53
2022/07/09 00:26:41;;;;;;;1.25;0.70;;;12.50;72.10;;;;;;5005841;28;20067;-52
2022/07/09 00:29:08;;;;;;;2.08;0.52;;;12.70;70.20;;;;;;5008210;28;20068;-57
2022/07/09 00:31:36;;;;;;;1.85;0.35;;;12.80;69.60;;;;;;5008490;28;20539;-48
2022/07/09 00:34:03;;;;;;;2.53;0.40;;;13.00;66.10;;;;;;5009646;28;20041;-56
2022/07/09 00:36:30;;;;;;;1.58;0.50;;;13.10;67.10;;;;;;5009880;28;20029;-54
2022/07/09 00:38:57;;;;;;;1.35;0.40;;;13.20;62.90;;;;;;5009501;28;20073;-57
2022/07/09 00:41:25;;;;;;;1.98;0.57;;;13.30;64.50;;;;;;5007798;28;20101;-57
2022/07/09 00:43:52;;;;;;;2.25;0.73;;;13.40;64.40;;;;;;5007584;28;20546;-53
2022/07/09 00:46:19;;;;;;;2.08;0.40;;;13.50;63.30;;;;;;5007486;28;20132;-57
2022/07/09 00:48:47;;;;;;;2.10;0.95;;;13.50;61.80;;;;;;5006621;28;20038;-57
2022/07/09 00:51:17;;;;;;;0.47;0.30;;;13.60;61.70;;;;;;5006217;28;20029;-58
2022/07/09 00:53:46;;;;;;;1.65;0.40;;;13.70;59.90;;;;;;5008041;28;20022;-54
2022/07/09 00:56:13;;;;;;;0.93;0.30;;;13.70;59.60;;;;;;5008597;28;20033;-55
2022/07/09 00:58:45;;;;;;;0.75;0.30;;;13.80;59.70;;;;;;5007143;28;20120;-52
2022/07/09 01:01:12;;;;;;;0.75;0.20;;;13.90;59.40;;;;;;5006923;28;20075;-54
2022/07/09 01:03:39;;;;;;;2.08;0.52;;;13.90;60.60;;;;;;5004871;28;20030;-59
2022/07/09 01:06:07;;;;;;;1.13;0.30;;;14.00;60.60;;;;;;5005498;28;20053;-58
2022/07/09 01:08:34;;;;;;;1.35;0.38;;;14.00;60.70;;;;;;5007997;28;20030;-58
2022/07/09 01:11:01;;;;;;;0.50;0.22;;;14.10;59.50;;;;;;5006082;28;20099;-59
2022/07/09 01:13:29;;;;;;;0.68;0.28;;;14.30;57.70;;;;;;5003316;28;20022;-60
2022/07/09 01:15:56;;;;;;;1.55;0.30;;;14.30;57.70;;;;;;5006596;28;20462;-60
2022/07/09 01:18:24;;;;;;;0.57;0.20;;;14.30;58.50;;;;;;5005208;28;20041;-57
2022/07/09 01:20:52;;;;;;;2.65;0.50;;;14.40;56.70;;;;;;5003225;28;20029;-60
2022/07/09 01:23:19;;;;;;;0.40;0.30;;;14.40;57.40;;;;;;5012101;28;20037;-60
2022/07/09 01:25:47;;;;;;;0.68;0.35;;;14.50;57.90;;;;;;5007471;28;20552;-58
2022/07/09 01:28:14;;;;;;;1.00;0.40;;;14.50;58.80;;;;;;5012096;28;20121;-58
2022/07/09 01:30:42;;;;;;;0.93;0.30;;;14.60;55.60;;;;;;5005086;28;20113;-59
2022/07/09 01:33:09;;;;;;;0.85;0.20;;;14.60;56.20;;;;;;5004056;28;20026;-59
2022/07/09 01:35:36;;;;;;;0.47;0.20;;;14.80;56.30;;;;;;5006491;28;20036;-59
2022/07/09 01:38:04;;;;;;;1.13;0.40;;;14.80;55.30;;;;;;5002407;28;20433;-60
2022/07/09 01:40:31;;;;;;;3.80;0.50;;;14.80;55.30;;;;;;5004303;28;20115;-56
2022/07/09 01:42:58;;;;;;;1.30;0.52;;;14.80;57.00;;;;;;5006870;28;20032;-54
2022/07/09 01:45:26;;;;;;;0.93;0.35;;;14.90;55.80;;;;;;5005997;28;20086;-56
2022/07/09 01:47:53;;;;;;;4.90;0.40;;;14.80;55.80;;;;;;5005506;28;20077;-52
2022/07/09 01:50:20;;;;;;;1.70;0.40;;;14.90;56.30;;;;;;5005821;28;20030;-55
2022/07/09 01:52:48;;;;;;;2.08;0.47;;;15.00;56.60;;;;;;5005614;28;20030;-50
2022/07/09 01:55:15;;;;;;;3.25;0.57;;;15.10;55.20;;;;;;5006198;28;20030;-56
2022/07/09 01:57:43;;;;;;;1.70;0.52;;;15.10;56.20;;;;;;5010393;28;20088;-54
2022/07/09 02:00:11;;;;;;;3.72;0.38;;;15.10;54.40;;;;;;5007305;28;20050;-56
2022/07/09 02:02:38;;;;;;;0.93;0.30;;;15.00;54.20;;;;;;5009391;28;20030;-55
2022/07/09 02:05:05;;;;;;;0.80;0.30;;;15.10;55.60;;;;;;5011554;28;20018;-56
2022/07/09 02:07:33;;;;;;;3.50;0.55;;;15.20;55.50;;;;;;5008378;28;20029;-57
2022/07/09 02:10:00;;;;;;;2.10;0.30;;;15.20;56.00;;;;;;5002147;28;20034;-59
2022/07/09 02:12:27;;;;;;;0.80;0.30;;;15.20;55.60;;;;;;4997822;28;20053;-58
2022/07/09 02:14:55;;;;;;;1.10;0.63;;;15.30;55.20;;;;;;5004646;28;20049;-55
2022/07/09 02:17:22;;;;;;;2.42;0.50;;;15.20;54.90;;;;;;5008226;28;20022;-56
2022/07/09 02:19:49;;;;;;;0.65;0.20;;;15.30;55.90;;;;;;5001279;28;20220;-56
2022/07/09 02:22:16;;;;;;;0.57;0.30;;;15.30;54.40;;;;;;5008521;28;20076;-57
2022/07/09 02:24:44;;;;;;;0.38;0.20;;;15.30;55.40;;;;;;5006038;28;20035;-58
2022/07/09 02:27:11;;;;;;;1.25;0.50;;;15.40;55.70;;;;;;4997780;28;20506;-57
2022/07/09 02:29:39;;;;;;;0.50;0.28;;;15.40;55.40;;;;;;4998591;28;20037;-58
2022/07/09 02:32:06;;;;;;;1.55;0.20;;;15.50;56.00;;;;;;5001383;28;20483;-59
2022/07/09 02:34:34;;;;;;;1.42;0.47;;;15.50;55.10;;;;;;5010274;28;20025;-55
2022/07/09 02:37:01;;;;;;;1.35;0.30;;;15.60;54.60;;;;;;5011338;28;20040;-57
2022/07/09 02:39:28;;;;;;;1.20;0.30;;;15.40;54.70;;;;;;5010426;28;21026;-55
2022/07/09 02:41:55;;;;;;;1.30;0.30;;;15.40;55.30;;;;;;5006584;28;20026;-57
2022/07/09 02:44:22;;;;;;;0.80;0.20;;;15.50;55.40;;;;;;5008737;28;20021;-58
2022/07/09 02:46:50;;;;;;;0.20;0.20;;;15.50;54.80;;;;;;5008660;28;20691;-57
2022/07/09 02:49:18;;;;;;;1.02;0.40;;;15.50;55.10;;;;;;5008559;28;20034;-57
2022/07/09 02:51:45;;;;;;;0.30;0.20;;;15.50;55.50;;;;;;5010307;28;20040;-58
2022/07/09 02:54:12;;;;;;;3.60;0.60;;;15.50;54.50;;;;;;4999778;28;20026;-58
2022/07/09 02:56:39;;;;;;;0.57;0.30;;;15.60;55.50;;;;;;5010542;28;20018;-57
2022/07/09 02:59:07;;;;;;;6.07;0.82;;;15.50;54.20;;;;;;5009813;28;20088;-56
2022/07/09 03:01:34;;;;;;;1.13;0.40;;;15.60;55.60;;;;;;5008530;28;20029;-58
2022/07/09 03:04:01;;;;;;;0.60;0.30;;;15.70;55.40;;;;;;5008460;28;20113;-59
2022/07/09 03:06:28;;;;;;;1.02;0.47;;;15.70;55.60;;;;;;4998332;28;20010;-56
2022/07/09 03:08:55;;;;;;;0.95;0.20;;;15.80;54.70;;;;;;5008416;28;20033;-57
2022/07/09 03:11:23;;;;;;;0.60;0.50;;;15.80;54.10;;;;;;5004764;28;20041;-57
2022/07/09 03:13:50;;;;;;;2.00;0.30;;;15.70;54.30;;;;;;5010794;28;20334;-58
2022/07/09 03:16:17;;;;;;;2.63;0.60;;;15.80;54.80;;;;;;5010770;28;20029;-58
2022/07/09 03:18:44;;;;;;;0.93;0.32;;;15.80;54.50;;;;;;5013284;28;20022;-56
2022/07/09 03:21:12;;;;;;;1.25;0.35;;;15.80;53.60;;;;;;5027007;28;20092;-57
2022/07/09 03:23:42;;;;;;;0.60;0.50;;;15.90;54.50;;;;;;5017051;28;20060;-58
2022/07/09 03:26:09;;;;;;;0.75;0.55;;;15.90;54.80;;;;;;5021648;28;20018;-59
2022/07/09 03:28:37;;;;;;;0.38;0.17;;;15.90;54.10;;;;;;5004740;28;20038;-55
2022/07/09 03:31:04;;;;;;;4.45;0.55;;;15.90;54.00;;;;;;5003003;28;20022;-59
2022/07/09 03:33:31;;;;;;;1.20;0.32;;;15.90;54.40;;;;;;5007260;28;20588;-57
2022/07/09 03:35:58;;;;;;;1.02;0.30;;;15.90;54.90;;;;;;5006830;28;20402;-59
2022/07/09 03:38:26;;;;;;;1.38;0.50;;;15.90;56.20;;;;;;5009644;28;20032;-52
2022/07/09 03:40:53;;;;;;;1.65;0.50;;;15.90;54.60;;;;;;5008831;28;20037;-60
2022/07/09 03:43:20;;;;;;;1.63;0.20;;;15.90;54.50;;;;;;5009533;28;20034;-59
2022/07/09 03:45:47;;;;;;;0.90;0.30;;;16.00;53.80;;;;;;5009649;28;20399;-60
2022/07/09 03:48:15;;;;;;;1.08;1.00;;;15.90;54.10;;;;;;5010119;28;20048;-61
2022/07/09 03:50:42;;;;;;;0.70;0.32;;;16.00;53.30;;;;;;5009258;28;20030;-60
2022/07/09 03:53:09;;;;;;;1.10;0.32;;;16.00;53.20;;;;;;5008866;28;20101;-60
2022/07/09 03:55:37;;;;;;;0.70;0.30;;;16.00;52.40;;;;;;5008229;28;20026;-60
2022/07/09 03:58:04;;;;;;;0.85;0.30;;;16.00;53.40;;;;;;5008356;28;20050;-60
2022/07/09 04:00:32;;;;;;;0.68;0.30;;;15.90;52.40;;;;;;5008271;28;20025;-60
2022/07/09 04:02:59;;;;;;;0.65;0.35;;;15.90;52.50;;;;;;5007022;28;20026;-61
2022/07/09 04:05:26;;;;;;;0.20;0.20;;;15.80;53.50;;;;;;5008886;28;20026;-60
2022/07/09 04:07:53;;;;;;;0.98;0.38;;;15.90;53.40;;;;;;5009347;28;20064;-60
2022/07/09 04:10:21;;;;;;;1.25;0.30;;;15.90;52.50;;;;;;5010017;28;20180;-60
2022/07/09 04:12:48;;;;;;;2.58;0.60;;;15.80;54.10;;;;;;5009983;28;20026;-60
2022/07/09 04:15:16;;;;;;;0.20;0.17;;;15.90;54.30;;;;;;5009681;28;20026;-60
2022/07/09 04:17:43;;;;;;;0.60;0.17;;;15.80;53.90;;;;;;5008489;28;20036;-60
2022/07/09 04:20:11;;;;;;;1.02;0.47;;;15.90;53.50;;;;;;5007969;28;20392;-61
2022/07/09 04:22:38;;;;;;;0.80;0.40;;;15.80;54.10;;;;;;5009948;28;20113;-60
2022/07/09 04:25:06;;;;;;;0.30;0.28;;;15.80;53.70;;;;;;5009828;28;20450;-60
2022/07/09 04:27:35;;;;;;;0.95;0.30;;;15.80;53.50;;;;;;5008484;28;20073;-60
2022/07/09 04:30:03;;;;;;;0.75;0.35;;;15.80;53.90;;;;;;5009379;28;20038;-60
2022/07/09 04:32:30;;;;;;;0.75;0.22;;;15.70;54.50;;;;;;5009706;28;20403;-61
2022/07/09 04:34:57;;;;;;;1.42;0.35;;;15.80;54.20;;;;;;5008902;28;20030;-60
2022/07/09 04:37:25;;;;;;;0.95;0.17;;;15.70;54.70;;;;;;5010018;28;20026;-60
2022/07/09 04:39:52;;;;;;;2.30;0.30;;;15.70;54.60;;;;;;5009623;28;20430;-60
2022/07/09 04:42:20;;;;;;;0.40;0.20;;;15.70;54.80;;;;;;5009801;28;20073;-60
2022/07/09 04:44:47;;;;;;;0.65;0.30;;;15.60;54.60;;;;;;5009518;28;20017;-60
2022/07/09 04:47:14;;;;;;;1.13;0.30;;;15.60;54.50;;;;;;5009087;28;20042;-60
2022/07/09 04:49:41;;;;;;;2.78;0.75;;;15.60;54.30;;;;;;5009656;28;20045;-60
2022/07/09 04:52:09;;;;;;;1.35;0.50;;;15.50;55.00;;;;;;5009683;28;20534;-60
2022/07/09 04:54:36;;;;;;;0.77;0.30;;;15.50;55.30;;;;;;5009554;28;20462;-60
2022/07/09 04:57:04;;;;;;;2.53;0.40;;;15.50;55.20;;;;;;5009591;28;20135;-60
2022/07/09 04:59:31;;;;;;;1.67;0.30;;;15.40;55.00;;;;;;5008065;28;20479;-61
2022/07/09 05:01:58;;;;;;;0.47;0.20;;;15.40;55.70;;;;;;5008746;28;20399;-60
2022/07/09 05:04:25;;;;;;;1.40;0.40;;;15.40;55.50;;;;;;5009967;28;20084;-60
2022/07/09 05:06:52;;;;;;;0.20;0.20;;;15.30;55.40;;;;;;5009564;28;20032;-60
2022/07/09 05:09:20;;;;;;;0.30;0.22;;;15.30;54.80;;;;;;5008045;28;20096;-60
2022/07/09 05:11:47;;;;;;;1.02;0.32;;;15.30;55.60;;;;;;5008069;28;20029;-60
2022/07/09 05:14:14;;;;;;;0.65;0.30;;;15.20;55.80;;;;;;5008086;28;20048;-60
2022/07/09 05:16:44;;;;;;;1.98;0.30;;;15.20;55.60;;;;;;5009412;28;20351;-60
2022/07/09 05:19:12;;;;;;;0.77;0.30;;;15.20;55.60;;;;;;5009341;28;20125;-60
2022/07/09 05:21:41;;;;;;;0.30;0.17;;;15.10;56.00;;;;;;5009504;28;20051;-60
2022/07/09 05:24:08;;;;;;;1.30;0.40;;;15.10;56.20;;;;;;5009424;28;20479;-60
2022/07/09 05:26:36;;;;;;;1.17;0.40;;;15.10;56.70;;;;;;5009425;28;20022;-60
2022/07/09 05:29:04;;;;;;;1.48;0.30;;;15.10;56.10;;;;;;5009252;28;20034;-61
2022/07/09 05:31:31;;;;;;;0.22;0.20;;;15.10;55.90;;;;;;5012694;28;20054;-60
2022/07/09 05:34:00;;;;;;;0.25;0.25;;;15.20;56.30;;;;;;5013522;28;20057;-60
2022/07/09 05:36:30;;;;;;;0.40;0.28;;;15.10;58.30;;;;;;5013498;28;20475;-60
2022/07/09 05:38:59;;;;;;;0.80;0.25;;;15.00;56.90;;;;;;5012108;28;20509;-60
2022/07/09 05:41:26;;;;;;;0.93;0.30;;;15.00;56.60;;;;;;5013176;28;20037;-60
2022/07/09 05:43:56;;;;;;;0.45;0.35;;;14.90;57.20;;;;;;5012550;28;20022;-60
2022/07/09 05:46:24;;;;;;;1.48;0.50;;;14.90;56.90;;;;;;5012575;28;20045;-60
2022/07/09 05:48:51;;;;;;;0.50;0.20;;;14.90;57.10;;;;;;5012797;28;20121;-60
2022/07/09 05:51:18;;;;;;;1.20;0.30;;;14.90;57.60;;;;;;5012628;28;20018;-59
2022/07/09 05:53:45;;;;;;;0.28;0.28;;;14.90;57.10;;;;;;5012663;28;20029;-60
2022/07/09 05:56:13;;;;;;;1.00;0.30;;;14.80;58.50;;;;;;5012612;28;20026;-60
2022/07/09 05:58:40;;;;;;;0.25;0.15;;;14.70;57.80;;;;;;5012512;28;20030;-60
2022/07/09 06:01:07;;;;;;;0.82;0.30;;;14.70;58.00;;;;;;5011231;28;20026;-60
2022/07/09 06:03:35;;;;;;;0.55;0.30;;;14.70;57.80;;;;;;5012502;28;20409;-60
2022/07/09 06:06:02;;;;;;;0.52;0.20;;;14.70;58.60;;;;;;5011082;28;20084;-60
2022/07/09 06:08:31;;;;;;;0.50;0.22;;;14.70;58.10;;;;;;5013003;28;20061;-60
2022/07/09 06:10:59;;;;;;;0.60;0.40;;;14.70;57.80;;;;;;5012809;28;20026;-60
2022/07/09 06:13:26;;;;;;;1.38;0.45;;;14.70;58.50;;;;;;5011269;28;20030;-60
2022/07/09 06:15:54;;;;;;;1.27;0.30;;;14.70;57.60;;;;;;5011790;28;20022;-59
2022/07/09 06:18:22;;;;;;;0.50;0.30;;;14.70;58.40;;;;;;5011929;28;20026;-59
2022/07/09 06:20:49;;;;;;;1.55;0.47;;;14.60;58.30;;;;;;5012051;28;20360;-59
2022/07/09 06:23:16;;;;;;;0.20;0.20;;;14.60;57.60;;;;;;5012306;28;20026;-59
2022/07/09 06:25:44;;;;;;;3.10;0.30;;;14.60;58.30;;;;;;5012042;28;20022;-59
2022/07/09 06:28:11;;;;;;;1.13;0.30;;;14.50;57.90;;;;;;5011978;28;20034;-59
2022/07/09 06:30:38;;;;;;;2.65;0.65;;;14.40;58.40;;;;;;5012037;28;20495;-59
2022/07/09 06:33:05;;;;;;;1.65;0.40;;;14.40;58.40;;;;;;5011889;28;20080;-59
2022/07/09 06:35:33;;;;;;;2.03;0.40;;;14.30;59.20;;;;;;5010678;28;20438;-60
2022/07/09 06:38:00;;;;;;;0.65;0.30;;;14.20;60.30;;;;;;5012268;28;20161;-59
2022/07/09 06:40:28;;;;;;;1.33;0.35;;;14.10;59.30;;;;;;5012303;28;20021;-60
2022/07/09 06:42:55;;;;;;;1.90;0.73;;;14.10;59.40;;;;;;5010918;28;20030;-60
2022/07/09 06:45:22;;;;;;;0.55;0.10;;;14.00;60.10;;;;;;5011515;28;20072;-60
2022/07/09 06:47:50;;;;;;;2.45;0.57;;;13.90;60.10;;;;;;5011514;28;20053;-59
2022/07/09 06:50:17;;;;;;;0.75;0.20;;;13.80;60.70;;;;;;5011472;28;20034;-59
2022/07/09 06:52:45;;;;;;;1.00;0.30;;;13.70;61.10;;;;;;5011655;28;20022;-59
2022/07/09 06:55:12;;;;;;;1.48;0.40;;;13.60;61.60;;;;;;5010105;28;20392;-60
2022/07/09 06:57:39;;;;;;;0.30;0.13;;;13.60;62.50;;;;;;5010146;28;20026;-59
2022/07/09 07:00:07;;;;;;;0.45;0.20;;;13.50;63.00;;;;;;5011201;28;20022;-59
2022/07/09 07:02:35;;;;;;;2.80;0.60;;;13.40;62.40;;;;;;5011413;28;20029;-60
2022/07/09 07:05:02;;;;;;;0.75;0.32;;;13.30;62.80;;;;;;5010144;28;20030;-59
2022/07/09 07:07:30;;;;;;;0.57;0.22;;;13.20;63.10;;;;;;5011815;28;20021;-59
2022/07/09 07:09:57;;;;;;;1.27;0.40;;;13.20;63.30;;;;;;5010182;28;20505;-59
2022/07/09 07:12:24;;;;;;;0.50;0.25;;;13.10;64.00;;;;;;5011099;28;20068;-59
2022/07/09 07:14:51;;;;;;;0.90;0.30;;;13.00;64.90;;;;;;5011336;28;20228;-59
2022/07/09 07:17:19;;;;;;;0.65;0.30;;;12.90;64.70;;;;;;5009231;28;20025;-60
2022/07/09 07:19:46;;;;;;;1.45;0.28;;;12.90;65.00;;;;;;5011268;28;20029;-59
2022/07/09 07:22:13;;;;;;;0.90;0.40;;;12.70;65.20;;;;;;5011146;28;20113;-59
2022/07/09 07:24:41;;;;;;;0.50;0.38;;;12.50;65.90;;;;;;5011032;28;20037;-59
2022/07/09 07:27:08;;;;;;;0.88;0.30;;;12.40;67.10;;;;;;5009667;28;20026;-60
2022/07/09 07:29:36;;;;;;;0.50;0.30;;;12.30;67.70;;;;;;5009428;28;20076;-60
2022/07/09 07:32:03;;;;;;;0.90;0.40;;;12.20;68.40;;;;;;5009447;28;20026;-60
2022/07/09 07:34:30;;;;;;;0.98;0.45;;;12.00;69.50;;;;;;5011483;28;20044;-59
2022/07/09 07:36:57;;;;;;;1.00;0.50;;;11.90;69.30;;;;;;5011201;28;20022;-59
2022/07/09 07:39:26;;;;;;;0.70;0.40;;;11.80;70.00;;;;;;5010432;28;20049;-58
2022/07/09 07:41:53;;;;;;;1.25;0.40;;;11.60;70.70;;;;;;5009997;28;20036;-57
2022/07/09 07:44:22;;;;;;;1.08;0.52;;;11.50;71.70;;;;;;5009075;28;20124;-57
2022/07/09 07:46:50;;;;;;;1.70;0.65;;;11.30;72.80;;;;;;5009260;28;20397;-56
2022/07/09 07:49:17;;;;;;;2.05;0.50;;;11.30;72.50;;;;;;5009418;28;20040;-56
2022/07/09 07:51:45;;;;;;;1.50;0.57;;;11.10;72.10;;;;;;5009058;28;20107;-56
2022/07/09 07:54:12;;;;;;;1.95;0.55;;;11.00;72.60;;;;;;5010322;28;20030;-58
2022/07/09 07:56:40;;;;;;;2.22;0.77;;;10.80;73.10;;;;;;5007887;28;20018;-55
2022/07/09 07:59:07;;;;;;;3.03;0.63;;;10.60;73.90;;;;;;5009143;28;20026;-56
2022/07/09 08:01:35;;;;;;;2.30;0.68;;;10.40;74.40;;;;;;5010189;28;20034;-55
2022/07/09 08:04:03;;;;;;;1.58;0.70;;;10.30;75.30;;;;;;5010512;28;20049;-56
2022/07/09 08:06:30;;;;;;;0.55;0.50;;;10.10;75.80;;;;;;5009412;28;20022;-56
2022/07/09 08:08:57;;;;;;;3.72;0.52;;;9.90;76.50;;;;;;5008720;28;20042;-60
2022/07/09 08:11:24;;;;;;;3.22;0.88;;;9.70;77.20;;;;;;5010138;28;20045;-57
2022/07/09 08:13:51;;;;;;;1.70;0.70;;;9.50;77.90;;;;;;5009316;28;20030;-53
2022/07/09 08:16:19;;;;;;;2.20;0.73;;;9.40;78.60;;;;;;5012618;28;20030;-54
2022/07/09 08:18:47;;;;;;;1.83;1.33;;;9.30;79.30;;;;;;5013486;28;20034;-54
2022/07/09 08:21:15;;;;;;;2.58;0.88;;;9.20;80.30;;;;;;5014929;28;20041;-55
2022/07/09 08:23:54;;;;;;;1.42;0.70;;;9.10;81.70;;;;;;5009298;28;20026;-54
2022/07/09 08:26:24;;;;;;;3.00;0.90;;;9.00;81.80;;;;;;5000278;28;20116;-51
2022/07/09 08:28:51;;;;;;;1.85;1.17;;;8.90;83.20;;;;;;5002046;28;20037;-51
2022/07/09 08:31:20;;;;;;;5.78;1.13;;;8.70;82.70;;;;;;5009943;28;20026;-55
2022/07/09 08:33:47;;;;;;;3.63;0.90;;;8.70;83.70;;;;;;5008274;28;20108;-51
2022/07/09 08:36:15;;;;;;;3.13;1.30;;;8.60;84.70;;;;;;5009678;28;20021;-51
2022/07/09 08:38:43;;;;;;;2.40;1.10;;;8.70;85.80;;;;;;5009842;28;20025;-53
2022/07/09 08:41:10;;;;;;;5.03;1.60;;;8.70;86.40;;;;;;5009661;28;20026;-55
2022/07/09 08:43:38;;;;;;;4.88;2.13;;;8.70;86.40;;;;;;5009655;28;20454;-54
2022/07/09 08:46:06;;;;;;;5.78;1.40;;;8.80;86.00;;;;;;5009461;28;20104;-53
2022/07/09 08:48:37;;;;;;;3.90;1.67;;;8.80;86.00;;;;;;5009907;28;20038;-63
2022/07/09 08:51:05;;;;;;;3.42;1.70;;;8.90;85.60;;;;;;5009701;28;20490;-61
2022/07/09 08:53:32;;;;;;;9.13;1.80;;;8.90;85.80;;;;;;5010177;28;20030;-56
2022/07/09 08:55:59;;;;;;;8.50;1.52;;;8.90;85.90;;;;;;5009847;28;20022;-55
2022/07/09 08:58:27;;;;;;;3.90;1.40;;;8.90;85.60;;;;;;5009507;28;20025;-53
2022/07/09 09:00:55;;;;;;;3.45;1.00;;;9.00;84.70;;;;;;5009650;28;20029;-55
2022/07/09 09:03:23;;;;;;;3.42;0.80;;;9.10;84.20;;;;;;5009741;28;20101;-55
2022/07/09 09:06:08;;;;;;;3.53;0.90;;;9.40;83.40;;;;;;5012046;28;20399;-56
2022/07/09 09:08:41;;;;;;;1.65;1.00;;;9.50;82.20;;;;;;5013577;28;20478;-56
2022/07/09 09:11:17;;;;;;;1.40;0.90;;;9.70;81.50;;;;;;5013643;28;20030;-54
2022/07/09 09:13:46;;;;;;;1.30;0.70;;;9.80;80.80;;;;;;5013239;28;20101;-53
2022/07/09 09:16:16;;;;;;;2.40;1.50;;;9.90;80.10;;;;;;5013069;28;20466;-56
2022/07/09 09:18:48;;;;;;;1.77;1.02;;;10.00;79.80;;;;;;5013387;28;20025;-54
2022/07/09 09:21:19;;;;;;;1.20;0.80;;;10.10;79.30;;;;;;5013315;28;20120;-57
2022/07/09 09:23:49;;;;;;;3.35;1.08;;;10.10;79.50;;;;;;5013162;28;20022;-56
2022/07/09 09:26:19;;;;;;;1.95;0.75;;;10.10;79.20;;;;;;5013358;28;20026;-55
2022/07/09 09:29:05;;;;;;;1.33;0.98;;;10.00;79.10;;;;;;5012948;28;20116;-53
2022/07/09 09:31:34;;;;;;;1.65;0.88;;;10.10;79.50;;;;;;5012429;28;20434;-52
2022/07/09 09:34:11;;;;;;;4.13;0.77;;;10.00;80.10;;;;;;5013510;28;20032;-56
2022/07/09 09:36:41;;;;;;;1.02;0.52;;;9.90;80.40;;;;;;5013013;28;20021;-54
2022/07/09 09:39:15;;;;;;;1.40;0.73;;;9.80;81.10;;;;;;5011915;28;20506;-54
2022/07/09 09:41:44;;;;;;;2.28;0.85;;;9.70;81.40;;;;;;5010373;28;20026;-55
2022/07/09 09:44:17;;;;;;;1.73;0.68;;;9.70;82.00;;;;;;4992057;28;20387;-56
2022/07/09 09:46:45;;;;;;;1.73;0.90;;;9.70;82.00;;;;;;5010614;28;20553;-55
2022/07/09 09:49:15;;;;;;;1.05;0.63;;;9.70;81.60;;;;;;5012501;28;20073;-52
2022/07/09 09:52:05;;;;;;;2.83;0.80;;;9.70;81.60;;;;;;5016614;28;20032;-52
2022/07/09 09:54:36;;;;;;;2.47;0.90;;;9.60;82.10;;;;;;5006292;28;20022;-53
2022/07/09 09:57:09;;;;;;;1.75;0.70;;;9.50;82.70;;;;;;5012473;28;20026;-61
2022/07/09 09:59:42;;;;;;;2.25;0.70;;;9.40;83.30;;;;;;5010953;28;20068;-54
2022/07/09 10:02:10;;;;;;;2.17;0.80;;;9.30;83.70;;;;;;5021449;28;20100;-53
2022/07/09 10:04:40;;;;;;;6.68;1.13;;;9.20;84.80;;;;;;5015073;28;20028;-56
2022/07/09 10:07:09;;;;;;;2.08;0.98;;;9.20;84.50;;;;;;5016690;28;20021;-55
2022/07/09 10:09:36;;;;;;;3.30;0.95;;;9.10;85.10;;;;;;5030701;28;20048;-54
2022/07/09 10:12:04;;;;;;;2.83;1.05;;;9.10;85.10;;;;;;5027918;28;20021;-64
2022/07/09 10:14:33;;;;;;;1.73;1.05;;;9.20;84.90;;;;;;5012869;28;20026;-57
2022/07/09 10:17:17;;;;;;;2.28;1.20;;;9.20;84.60;;;;;;5011390;28;20435;-54
2022/07/09 10:20:01;;;;;;;1.95;0.93;;;9.20;84.90;;;;;;5018736;28;20171;-53
2022/07/09 10:22:44;;;;;;;2.45;1.35;;;9.10;84.50;;;;;;5032303;28;20021;-55
2022/07/09 10:25:14;;;;;;;5.15;1.40;;;9.00;85.10;;;;;;5030582;28;20038;-53
2022/07/09 10:27:45;;;;;;;2.92;1.42;;;8.90;86.00;;;;;;5031778;28;20021;-56
2022/07/09 10:30:45;;;;;;;5.95;1.73;;;8.80;85.90;;;;;;5030400;28;20522;-51
2022/07/09 10:33:13;;;;;;;2.33;1.50;;;8.70;86.70;;;;;;5004109;28;20060;-56
2022/07/09 10:35:45;;;;;;;2.15;1.30;;;8.60;87.20;;;;;;5011959;28;20376;-54
2022/07/09 10:38:14;;;;;;;2.63;1.50;;;8.60;87.50;;;;;;5011747;28;20080;-51
2022/07/09 10:40:56;;;;;;;3.63;1.65;;;8.50;87.80;;;;;;5010547;28;20040;-52
2022/07/09 10:43:44;;;;;;;4.70;1.60;;;8.50;88.00;;;;;;5026053;28;20537;-53
2022/07/09 10:46:13;;;;;;;3.03;1.20;;;8.40;88.30;;;;;;5011210;28;20109;-55
2022/07/09 10:48:41;;;;;;;3.05;1.85;;;8.30;88.60;;;;;;5012318;28;20465;-53
2022/07/09 10:51:08;;;;;;;2.25;1.10;;;8.20;89.20;;;;;;5018802;28;20026;-55
2022/07/09 10:53:35;;;;;;;2.33;1.25;;;8.10;89.80;;;;;;5011004;28;20113;-53
2022/07/09 10:56:03;;;;;;;2.72;1.42;;;8.10;89.90;;;;;;4994875;28;20087;-51
2022/07/09 10:58:30;;;;;;;3.15;1.45;;;8.10;90.10;;;;;;5004006;28;20497;-54
2022/07/09 11:00:57;;;;;;;2.75;1.10;;;7.90;90.00;;;;;;4994165;28;20060;-56
2022/07/09 11:03:29;;;;;;;5.05;1.45;;;7.80;90.30;;;;;;5010407;28;20079;-53
2022/07/09 11:05:57;;;;;;;1.70;1.25;;;7.80;90.40;;;;;;5016959;28;20029;-57
2022/07/09 11:08:27;;;;;;;2.88;1.23;;;7.60;90.50;;;;;;5022650;28;20024;-52
2022/07/09 11:10:55;;;;;;;3.05;1.23;;;7.50;90.70;;;;;;5022261;28;20029;-56
2022/07/09 11:13:26;;;;;;;3.80;1.42;;;7.40;91.10;;;;;;5011311;28;20108;-53
2022/07/09 11:16:02;;;;;;;2.75;1.33;;;7.40;91.40;;;;;;5012759;28;20112;-50
2022/07/09 11:18:30;;;;;;;4.75;1.38;;;7.30;91.40;;;;;;5014017;28;20079;-52
2022/07/09 11:20:57;;;;;;;2.83;1.15;;;7.40;91.90;;;;;;5009044;28;20032;-50
2022/07/09 11:23:24;;;;;;;3.83;1.50;;;7.30;91.70;;;;;;5009541;28;20065;-52
2022/07/09 11:25:52;;;;;;;1.45;1.10;;;7.40;91.90;;;;;;5007114;28;20079;-54
2022/07/09 11:28:29;;;;;;;3.45;1.77;;;7.30;91.90;;;;;;5004743;28;20510;-50
2022/07/09 11:31:03;;;;;;;3.50;1.88;;;7.40;91.90;;;;;;5007079;28;20033;-52
2022/07/09 11:36:18;;;;;;;3.85;1.80;;;7.60;91.50;;;;;;5012359;28;20036;-55
2022/07/09 11:39:03;;;;;;;3.30;1.88;;;7.70;91.30;;;;;;5016938;28;20034;-54
2022/07/09 11:41:42;;;;;;;3.83;1.95;;;7.80;90.90;;;;;;5004389;28;20032;-51
2022/07/09 11:44:10;;;;;;;3.70;1.60;;;7.80;90.90;;;;;;5005139;28;20026;-53
2022/07/09 11:46:37;;;;;;;5.45;1.60;;;7.80;90.70;;;;;;5021782;28;20037;-58
2022/07/09 11:49:15;;;;;;;4.68;1.60;;;7.70;90.50;;;;;;5006116;28;20040;-65
2022/07/09 11:51:43;;;;;;;6.55;1.88;;;7.60;90.80;;;;;;5026408;28;20296;-55
2022/07/09 11:54:10;;;;;;;3.33;1.50;;;7.60;90.80;;;;;;5007822;28;20113;-53
2022/07/09 11:56:47;;;;;;;5.30;1.60;;;7.60;91.00;;;;;;5006834;28;20024;-58
2022/07/09 11:59:25;;;;;;;8.57;2.00;;;7.50;91.10;;;;;;5006085;28;20021;-53
2022/07/09 12:01:52;;;;;;;2.65;1.75;;;7.60;91.30;;;;;;5010662;28;20026;-57
2022/07/09 12:04:20;;;;;;;4.60;2.20;;;7.60;90.80;;;;;;5007429;28;20683;-56
2022/07/09 12:06:52;;;;;;;4.50;1.17;;;7.60;91.00;;;;;;5010838;28;20062;-56
2022/07/09 12:09:32;;;;;;;3.42;1.58;;;7.60;91.00;;;;;;5005627;28;20034;-55
2022/07/09 12:12:00;;;;;;;6.18;1.98;;;7.60;91.10;;;;;;5010439;28;20395;-57
2022/07/09 12:14:27;;;;;;;2.90;1.50;;;7.70;90.70;;;;;;5010498;28;20026;-53
2022/07/09 12:16:55;;;;;;;4.90;2.28;;;7.80;90.60;;;;;;5008852;28;20022;-54
2022/07/09 12:19:22;;;;;;;6.57;2.58;;;7.80;90.40;;;;;;5006199;28;20399;-52
2022/07/09 12:21:50;;;;;;;4.55;2.15;;;7.90;90.50;;;;;;5008667;28;20415;-55
2022/07/09 12:24:17;;;;;;;3.85;1.95;;;7.90;90.20;;;;;;5007331;28;20033;-54
2022/07/09 12:26:45;;;;;;;6.00;1.92;;;8.00;90.50;;;;;;5012086;28;20402;-56
2022/07/09 12:29:12;;;;;;;2.67;1.60;;;8.00;90.30;;;;;;5005382;28;20093;-54
2022/07/09 12:31:39;;;;;;;3.15;1.77;;;7.90;90.00;;;;;;5007306;28;20022;-53
2022/07/09 12:34:06;;;;;;;3.13;1.63;;;7.80;90.40;;;;;;5007551;28;20037;-54
2022/07/09 12:36:34;;;;;;;3.22;1.38;;;7.70;90.50;;;;;;5008017;28;20390;-53
2022/07/09 12:39:01;;;;;;;2.65;1.50;;;7.70;90.70;;;;;;5007775;28;20036;-53
2022/07/09 12:41:28;;;;;;;3.55;1.52;;;7.70;90.80;;;;;;5013682;28;20025;-53
2022/07/09 12:43:55;;;;;;;2.75;1.20;;;7.60;90.80;;;;;;5009355;28;20769;-53
2022/07/09 12:46:23;;;;;;;3.05;1.40;;;7.70;91.00;;;;;;5010736;28;20042;-56
2022/07/09 12:48:50;;;;;;;2.70;1.20;;;7.70;90.80;;;;;;5008886;28;20073;-55
2022/07/09 12:51:17;;;;;;;3.38;1.08;;;7.80;90.60;;;;;;5006696;28;20037;-52
2022/07/09 12:53:45;;;;;;;3.63;1.38;;;8.00;90.30;;;;;;5009502;28;20055;-49
2022/07/09 12:56:12;;;;;;;2.33;0.98;;;8.10;89.70;;;;;;5007895;28;20026;-54
2022/07/09 12:58:39;;;;;;;4.68;1.08;;;8.20;89.40;;;;;;5006628;28;20084;-57
2022/07/09 13:01:06;;;;;;;3.03;1.25;;;8.30;89.50;;;;;;5019508;28;20490;-55